createdAt,value
2018-12-29T00:00:10.497Z,8.30
2018-12-29T00:02:37.980Z,8.30
2018-12-29T00:05:05.432Z,8.20
2018-12-29T00:07:32.900Z,8.20
2018-12-29T00:10:00.377Z,8.30
2018-12-29T00:12:27.873Z,8.20
2018-12-29T00:14:56.760Z,8.30
2018-12-29T00:17:24.225Z,8.30
2018-12-29T00:19:52.462Z,8.30
2018-12-29T00:22:19.933Z,8.30
2018-12-29T00:24:47.407Z,8.30
2018-12-29T00:27:14.882Z,8.40
2018-12-29T00:29:42.419Z,8.30
2018-12-29T00:32:09.993Z,8.30
2018-12-29T00:34:37.447Z,8.30
2018-12-29T00:37:05.015Z,8.30
2018-12-29T00:39:32.481Z,8.30
2018-12-29T00:42:00.040Z,8.30
2018-12-29T00:44:27.611Z,8.40
2018-12-29T00:46:55.069Z,8.30
2018-12-29T00:49:22.540Z,8.30
2018-12-29T00:51:50.112Z,8.30
2018-12-29T00:54:18.349Z,8.40
2018-12-29T00:56:45.814Z,8.30
2018-12-29T00:59:13.266Z,8.40
2018-12-29T01:01:40.758Z,8.40
2018-12-29T01:04:08.222Z,8.30
2018-12-29T01:06:37.197Z,8.40
2018-12-29T01:09:04.682Z,8.40
2018-12-29T01:11:32.147Z,8.60
2018-12-29T01:13:59.610Z,8.50
2018-12-29T01:16:27.059Z,8.50
2018-12-29T01:18:54.692Z,8.60
2018-12-29T01:21:22.148Z,8.50
2018-12-29T01:23:49.605Z,8.60
2018-12-29T01:26:17.084Z,8.60
2018-12-29T01:28:44.557Z,8.60
2018-12-29T01:31:12.047Z,8.60
2018-12-29T01:33:39.612Z,8.60
2018-12-29T01:36:07.079Z,8.60
2018-12-29T01:38:34.539Z,8.60
2018-12-29T01:41:01.996Z,8.50
2018-12-29T01:43:30.217Z,8.50
2018-12-29T01:45:57.728Z,8.50
2018-12-29T01:48:25.201Z,8.50
2018-12-29T01:50:52.807Z,8.50
2018-12-29T01:53:21.030Z,8.60
2018-12-29T01:55:48.487Z,8.60
2018-12-29T01:58:15.969Z,8.50
2018-12-29T02:00:43.431Z,8.50
2018-12-29T02:03:11.718Z,8.60
2018-12-29T02:05:39.172Z,8.60
2018-12-29T02:08:08.172Z,8.60
2018-12-29T02:10:35.653Z,8.60
2018-12-29T02:13:04.719Z,8.60
2018-12-29T02:15:32.182Z,8.60
2018-12-29T02:17:59.645Z,8.60
2018-12-29T02:20:27.119Z,8.60
2018-12-29T02:22:54.564Z,8.60
2018-12-29T02:25:22.161Z,8.50
2018-12-29T02:27:49.626Z,8.60
2018-12-29T02:30:17.874Z,8.50
2018-12-29T02:32:45.324Z,8.50
2018-12-29T02:35:12.788Z,8.60
2018-12-29T02:37:40.264Z,8.50
2018-12-29T02:40:07.841Z,8.60
2018-12-29T02:42:35.302Z,8.50
2018-12-29T02:45:05.207Z,8.60
2018-12-29T02:47:32.774Z,8.50
2018-12-29T02:50:00.407Z,8.50
2018-12-29T02:52:27.897Z,8.60
2018-12-29T02:54:55.353Z,8.60
2018-12-29T02:57:22.917Z,8.60
2018-12-29T02:59:50.408Z,8.50
2018-12-29T03:02:17.970Z,8.60
2018-12-29T03:04:45.434Z,8.50
2018-12-29T03:07:12.920Z,8.50
2018-12-29T03:09:40.455Z,8.60
2018-12-29T03:12:08.666Z,8.50
2018-12-29T03:14:36.120Z,8.50
2018-12-29T03:17:04.446Z,8.50
2018-12-29T03:19:31.917Z,8.50
2018-12-29T03:21:59.375Z,8.60
2018-12-29T03:24:26.831Z,8.50
2018-12-29T03:26:54.412Z,8.50
2018-12-29T03:29:21.865Z,8.50
2018-12-29T03:31:49.435Z,8.50
2018-12-29T03:34:16.906Z,8.50
2018-12-29T03:36:44.368Z,8.50
2018-12-29T03:39:11.835Z,8.50
2018-12-29T03:41:39.305Z,8.50
2018-12-29T03:44:06.761Z,8.40
2018-12-29T03:46:34.320Z,8.40
2018-12-29T03:49:03.489Z,8.50
2018-12-29T03:51:30.933Z,8.50
2018-12-29T03:53:58.402Z,8.50
2018-12-29T03:56:25.906Z,8.40
2018-12-29T03:58:54.180Z,8.50
2018-12-29T04:01:21.630Z,8.50
2018-12-29T04:03:49.198Z,8.40
2018-12-29T04:06:16.658Z,8.50
2018-12-29T04:08:44.146Z,8.50
2018-12-29T04:11:11.701Z,8.50
2018-12-29T04:13:39.167Z,8.50
2018-12-29T04:16:06.629Z,8.50
2018-12-29T04:18:34.089Z,8.50
2018-12-29T04:21:02.331Z,8.60
2018-12-29T04:23:29.812Z,8.50
2018-12-29T04:25:57.282Z,8.60
2018-12-29T04:28:25.068Z,8.60
2018-12-29T04:30:52.618Z,8.60
2018-12-29T04:33:20.175Z,8.60
2018-12-29T04:35:47.746Z,8.60
2018-12-29T04:38:15.312Z,8.60
2018-12-29T04:40:42.759Z,8.60
2018-12-29T04:43:10.212Z,8.50
2018-12-29T04:45:37.701Z,8.60
2018-12-29T04:48:05.260Z,8.60
2018-12-29T04:50:32.723Z,8.60
2018-12-29T04:53:00.175Z,8.60
2018-12-29T04:55:27.646Z,8.60
2018-12-29T04:57:55.115Z,8.70
2018-12-29T05:00:22.577Z,8.70
2018-12-29T05:02:50.038Z,8.70
2018-12-29T05:05:17.509Z,8.70
2018-12-29T05:07:45.731Z,8.60
2018-12-29T05:10:13.222Z,8.60
2018-12-29T05:12:40.798Z,8.70
2018-12-29T05:15:08.368Z,8.70
2018-12-29T05:17:35.959Z,8.60
2018-12-29T05:20:03.489Z,8.70
2018-12-29T05:22:30.948Z,8.70
2018-12-29T05:24:58.417Z,8.60
2018-12-29T05:27:25.968Z,8.70
2018-12-29T05:29:53.430Z,8.60
2018-12-29T05:32:21.547Z,8.60
2018-12-29T05:34:49.766Z,8.70
2018-12-29T05:37:17.225Z,8.60
2018-12-29T05:39:44.707Z,8.60
2018-12-29T05:42:12.182Z,8.70
2018-12-29T05:44:39.645Z,8.70
2018-12-29T05:47:07.215Z,8.60
2018-12-29T05:49:34.681Z,8.60
2018-12-29T05:52:02.189Z,8.60
2018-12-29T05:54:30.434Z,8.70
2018-12-29T05:56:58.678Z,8.70
2018-12-29T05:59:26.143Z,8.60
2018-12-29T06:01:53.717Z,8.70
2018-12-29T06:04:21.192Z,8.70
2018-12-29T06:06:48.756Z,8.70
2018-12-29T06:09:16.210Z,8.70
2018-12-29T06:11:44.484Z,8.70
2018-12-29T06:14:12.054Z,8.60
2018-12-29T06:16:39.582Z,8.70
2018-12-29T06:19:07.049Z,8.70
2018-12-29T06:21:34.511Z,8.70
2018-12-29T06:24:02.017Z,8.70
2018-12-29T06:26:29.565Z,8.70
2018-12-29T06:28:57.035Z,8.70
2018-12-29T06:31:24.593Z,8.70
2018-12-29T06:33:52.829Z,8.80
2018-12-29T06:36:20.299Z,8.70
2018-12-29T06:38:47.802Z,8.80
2018-12-29T06:41:15.312Z,8.80
2018-12-29T06:43:42.827Z,8.80
2018-12-29T06:46:10.381Z,8.70
2018-12-29T06:48:37.841Z,8.70
2018-12-29T06:51:05.315Z,8.70
2018-12-29T06:53:32.778Z,8.70
2018-12-29T06:56:00.296Z,8.60
2018-12-29T06:58:27.762Z,8.60
2018-12-29T07:00:55.355Z,8.60
2018-12-29T07:03:22.821Z,8.60
2018-12-29T07:05:50.274Z,8.60
2018-12-29T07:08:17.863Z,8.50
2018-12-29T07:10:45.320Z,8.50
2018-12-29T07:13:13.581Z,8.40
2018-12-29T07:15:41.160Z,8.40
2018-12-29T07:18:08.730Z,8.40
2018-12-29T07:20:36.201Z,8.50
2018-12-29T07:23:04.769Z,8.50
2018-12-29T07:25:32.998Z,8.50
2018-12-29T07:28:00.480Z,8.50
2018-12-29T07:30:27.960Z,8.50
2018-12-29T07:32:55.429Z,8.60
2018-12-29T07:35:22.898Z,8.60
2018-12-29T07:37:50.450Z,8.70
2018-12-29T07:40:17.913Z,8.70
2018-12-29T07:42:45.486Z,8.70
2018-12-29T07:45:12.950Z,8.70
2018-12-29T07:47:40.405Z,8.70
2018-12-29T07:50:07.867Z,8.80
2018-12-29T07:52:35.354Z,8.80
2018-12-29T07:55:02.818Z,8.80
2018-12-29T07:57:30.286Z,8.80
2018-12-29T07:59:58.994Z,8.90
2018-12-29T08:02:25.196Z,9.00
2018-12-29T08:04:52.745Z,9.00
2018-12-29T08:07:20.314Z,8.90
2018-12-29T08:09:47.781Z,8.90
2018-12-29T08:12:15.341Z,8.90
2018-12-29T08:14:42.810Z,8.90
2018-12-29T08:17:11.785Z,8.80
2018-12-29T08:19:39.236Z,8.80
2018-12-29T08:22:07.505Z,8.90
2018-12-29T08:24:34.966Z,8.80
2018-12-29T08:27:02.460Z,8.90
2018-12-29T08:29:30.033Z,8.90
2018-12-29T08:31:57.490Z,8.90
2018-12-29T08:34:24.973Z,8.90
2018-12-29T08:36:52.449Z,9.00
2018-12-29T08:39:20.739Z,8.90
2018-12-29T08:41:48.190Z,8.90
2018-12-29T08:44:16.430Z,9.00
2018-12-29T08:46:43.885Z,9.00
2018-12-29T08:49:11.341Z,9.00
2018-12-29T08:51:38.818Z,9.00
2018-12-29T08:54:06.281Z,9.00
2018-12-29T08:56:33.860Z,8.90
2018-12-29T08:59:01.379Z,9.00
2018-12-29T09:01:28.836Z,9.00
2018-12-29T09:03:56.320Z,9.00
2018-12-29T09:06:23.783Z,9.00
2018-12-29T09:08:51.268Z,9.00
2018-12-29T09:11:18.826Z,9.00
2018-12-29T09:13:47.128Z,9.10
2018-12-29T09:16:14.531Z,9.10
2018-12-29T09:18:49.480Z,9.20
2018-12-29T09:21:09.493Z,9.20
2018-12-29T09:23:37.056Z,9.20
2018-12-29T09:26:05.325Z,9.20
2018-12-29T09:28:32.781Z,9.20
2018-12-29T09:31:00.237Z,9.10
2018-12-29T09:33:27.702Z,9.10
2018-12-29T09:35:56.314Z,9.10
2018-12-29T09:38:23.430Z,9.10
2018-12-29T09:40:50.921Z,9.10
2018-12-29T09:43:18.389Z,9.10
2018-12-29T09:45:46.609Z,9.10
2018-12-29T09:48:14.118Z,9.10
2018-12-29T09:50:41.579Z,9.20
2018-12-29T09:53:09.037Z,9.20
2018-12-29T09:55:36.486Z,9.20
2018-12-29T09:58:03.972Z,9.20
2018-12-29T10:00:31.421Z,9.10
2018-12-29T10:02:58.900Z,9.10
2018-12-29T10:05:27.858Z,9.10
2018-12-29T10:07:55.321Z,9.10
2018-12-29T10:10:22.777Z,9.10
2018-12-29T10:12:50.276Z,9.20
2018-12-29T10:15:17.742Z,9.20
2018-12-29T10:17:45.221Z,9.20
2018-12-29T10:20:12.687Z,9.20
2018-12-29T10:22:40.140Z,9.30
2018-12-29T10:25:08.411Z,9.30
2018-12-29T10:27:35.873Z,9.30
2018-12-29T10:30:04.423Z,9.40
2018-12-29T10:32:32.645Z,9.30
2018-12-29T10:35:00.282Z,9.30
2018-12-29T10:37:27.753Z,9.40
2018-12-29T10:39:55.309Z,9.30
2018-12-29T10:42:23.509Z,9.30
2018-12-29T10:44:51.053Z,9.30
2018-12-29T10:47:18.529Z,9.40
2018-12-29T10:49:45.990Z,9.40
2018-12-29T10:52:13.442Z,9.40
2018-12-29T10:54:40.891Z,9.50
2018-12-29T10:57:08.365Z,9.50
2018-12-29T10:59:35.835Z,9.40
2018-12-29T11:02:04.800Z,9.50
2018-12-29T11:04:33.043Z,9.50
2018-12-29T11:07:01.280Z,9.50
2018-12-29T11:09:28.759Z,9.40
2018-12-29T11:11:56.316Z,9.50
2018-12-29T11:14:23.766Z,9.40
2018-12-29T11:16:51.358Z,9.40
2018-12-29T11:19:18.808Z,9.50
2018-12-29T11:21:46.262Z,9.40
2018-12-29T11:24:13.735Z,9.50
2018-12-29T11:26:42.724Z,9.40
2018-12-29T11:29:10.184Z,9.40
2018-12-29T11:31:37.747Z,9.50
2018-12-29T11:34:05.324Z,9.50
2018-12-29T11:36:33.552Z,9.50
2018-12-29T11:39:01.013Z,9.40
2018-12-29T11:41:28.508Z,9.40
2018-12-29T11:43:55.979Z,9.50
2018-12-29T11:46:23.437Z,9.50
2018-12-29T11:48:50.903Z,9.50
2018-12-29T11:51:19.165Z,9.40
2018-12-29T11:53:46.631Z,9.40
2018-12-29T11:56:14.149Z,9.50
2018-12-29T11:58:42.400Z,9.40
2018-12-29T12:01:09.876Z,9.40
2018-12-29T12:03:37.361Z,9.40
2018-12-29T12:06:04.870Z,9.30
2018-12-29T12:08:32.340Z,9.30
2018-12-29T12:10:59.800Z,9.20
2018-12-29T12:13:28.085Z,9.10
2018-12-29T12:15:55.642Z,9.10
2018-12-29T12:18:23.209Z,9.10
2018-12-29T12:20:50.657Z,9.10
2018-12-29T12:23:18.164Z,9.00
2018-12-29T12:25:46.416Z,9.00
2018-12-29T12:28:13.886Z,9.00
2018-12-29T12:30:41.337Z,9.00
2018-12-29T12:33:08.887Z,9.00
2018-12-29T12:35:36.335Z,9.00
2018-12-29T12:38:03.808Z,9.00
2018-12-29T12:40:31.267Z,8.90
2018-12-29T12:42:58.849Z,8.90
2018-12-29T12:45:26.305Z,8.90
2018-12-29T12:47:53.782Z,8.90
2018-12-29T12:50:22.015Z,8.90
2018-12-29T12:52:49.482Z,8.80
2018-12-29T12:55:16.976Z,8.80
2018-12-29T12:57:45.293Z,8.90
2018-12-29T13:00:13.476Z,8.90
2018-12-29T13:02:40.998Z,8.90
2018-12-29T13:05:08.465Z,8.90
2018-12-29T13:07:35.919Z,8.90
2018-12-29T13:10:04.299Z,8.90
2018-12-29T13:12:31.861Z,8.80
2018-12-29T13:14:59.316Z,8.80
2018-12-29T13:17:26.784Z,8.80
2018-12-29T13:19:54.639Z,8.80
2018-12-29T13:22:22.130Z,8.80
2018-12-29T13:24:49.588Z,8.80
2018-12-29T13:27:17.169Z,8.80
2018-12-29T13:29:45.447Z,8.80
2018-12-29T13:32:13.706Z,8.80
2018-12-29T13:34:41.198Z,8.80
2018-12-29T13:37:09.428Z,8.80
2018-12-29T13:39:36.907Z,8.80
2018-12-29T13:42:04.381Z,8.80
2018-12-29T13:44:32.666Z,8.90
2018-12-29T13:47:00.143Z,8.80
2018-12-29T13:49:28.394Z,8.80
2018-12-29T13:51:55.885Z,8.80
2018-12-29T13:54:24.101Z,8.80
2018-12-29T13:56:51.592Z,8.80
2018-12-29T13:59:19.082Z,8.80
2018-12-29T14:01:46.561Z,8.80
2018-12-29T14:04:14.780Z,8.90
2018-12-29T14:06:42.272Z,8.90
2018-12-29T14:09:09.837Z,8.90
2018-12-29T14:11:37.390Z,8.90
2018-12-29T14:14:04.862Z,9.00
2018-12-29T14:16:33.860Z,9.00
2018-12-29T14:19:01.429Z,9.00
2018-12-29T14:21:28.936Z,9.00
2018-12-29T14:23:56.382Z,9.00
2018-12-29T14:26:24.074Z,9.00
2018-12-29T14:28:51.524Z,9.00
2018-12-29T14:31:19.030Z,9.10
2018-12-29T14:33:46.630Z,9.10
2018-12-29T14:36:14.857Z,9.20
2018-12-29T14:38:42.456Z,9.20
2018-12-29T14:41:10.015Z,9.20
2018-12-29T14:43:38.287Z,9.20
2018-12-29T14:46:05.846Z,9.20
2018-12-29T14:48:36.115Z,9.20
2018-12-29T14:51:01.602Z,9.30
2018-12-29T14:53:29.066Z,9.30
2018-12-29T14:55:57.330Z,9.30
2018-12-29T14:58:24.792Z,9.30
2018-12-29T15:00:52.274Z,9.30
2018-12-29T15:03:19.834Z,9.30
2018-12-29T15:05:48.080Z,9.30
2018-12-29T15:08:15.556Z,9.30
2018-12-29T15:10:43.127Z,9.30
2018-12-29T15:13:10.702Z,9.40
2018-12-29T15:15:38.195Z,9.50
2018-12-29T15:18:05.701Z,9.50
2018-12-29T15:20:33.192Z,9.60
2018-12-29T15:23:01.456Z,9.50
2018-12-29T15:25:28.932Z,9.50
2018-12-29T15:27:56.404Z,9.60
2018-12-29T15:30:24.645Z,9.60
2018-12-29T15:32:52.179Z,9.60
2018-12-29T15:35:19.692Z,9.60
2018-12-29T15:37:47.179Z,9.60
2018-12-29T15:40:15.393Z,9.60
2018-12-29T15:42:45.070Z,9.60
2018-12-29T15:45:10.372Z,9.60
2018-12-29T15:47:37.838Z,9.60
2018-12-29T15:50:06.074Z,9.60
2018-12-29T15:52:33.537Z,9.50
2018-12-29T15:55:01.014Z,9.60
2018-12-29T15:57:28.584Z,9.60
2018-12-29T15:59:56.072Z,9.60
2018-12-29T16:02:24.555Z,9.60
2018-12-29T16:04:52.033Z,9.60
2018-12-29T16:07:20.297Z,9.60
2018-12-29T16:09:48.533Z,9.60
2018-12-29T16:12:15.986Z,9.60
2018-12-29T16:14:43.474Z,9.60
2018-12-29T16:17:12.458Z,9.50
2018-12-29T16:19:39.893Z,9.50
2018-12-29T16:22:07.368Z,9.50
2018-12-29T16:24:34.856Z,9.60
2018-12-29T16:27:02.408Z,9.70
2018-12-29T16:29:29.982Z,9.80
2018-12-29T16:31:57.434Z,9.80
2018-12-29T16:34:24.925Z,9.90
2018-12-29T16:36:52.460Z,9.90
2018-12-29T16:39:19.951Z,9.90
2018-12-29T16:41:48.253Z,10.10
2018-12-29T16:44:15.793Z,10.10
2018-12-29T16:46:44.040Z,10.20
2018-12-29T16:49:11.501Z,10.20
2018-12-29T16:51:38.990Z,10.30
2018-12-29T16:54:06.482Z,10.30
2018-12-29T16:56:34.728Z,10.30
2018-12-29T16:59:02.191Z,10.30
2018-12-29T17:01:30.255Z,10.40
2018-12-29T17:03:57.326Z,10.40
2018-12-29T17:06:24.794Z,10.40
2018-12-29T17:08:52.265Z,10.30
2018-12-29T17:11:20.497Z,10.40
2018-12-29T17:13:47.992Z,10.40
2018-12-29T17:16:15.478Z,10.40
2018-12-29T17:18:43.713Z,10.30
2018-12-29T17:21:11.198Z,10.30
2018-12-29T17:23:38.775Z,10.30
2018-12-29T17:26:07.036Z,10.30
2018-12-29T17:28:34.517Z,10.20
2018-12-29T17:31:03.697Z,10.30
2018-12-29T17:33:31.153Z,10.30
2018-12-29T17:35:58.740Z,10.20
2018-12-29T17:38:27.014Z,10.20
2018-12-29T17:40:54.474Z,10.20
2018-12-29T17:43:21.967Z,10.20
2018-12-29T17:45:49.454Z,10.30
2018-12-29T17:48:16.921Z,10.20
2018-12-29T17:50:44.446Z,10.20
2018-12-29T17:53:11.943Z,10.20
2018-12-29T17:55:39.427Z,10.20
2018-12-29T17:58:06.910Z,10.20
2018-12-29T18:00:35.173Z,10.10
2018-12-29T18:03:03.617Z,10.10
2018-12-29T18:05:31.085Z,10.10
2018-12-29T18:07:58.548Z,10.10
2018-12-29T18:10:26.040Z,10.10
2018-12-29T18:12:54.940Z,10.10
2018-12-29T18:15:21.169Z,10.00
2018-12-29T18:17:49.418Z,9.90
2018-12-29T18:20:16.974Z,9.90
2018-12-29T18:22:44.490Z,9.90
2018-12-29T18:25:12.741Z,9.90
2018-12-29T18:27:40.227Z,9.90
2018-12-29T18:30:07.695Z,9.90
2018-12-29T18:32:35.251Z,9.90
2018-12-29T18:35:02.742Z,9.90
2018-12-29T18:37:31.051Z,9.90
2018-12-29T18:39:58.569Z,9.90
2018-12-29T18:42:26.848Z,9.80
2018-12-29T18:44:55.130Z,9.80
2018-12-29T18:47:22.692Z,9.80
2018-12-29T18:49:50.322Z,9.80
2018-12-29T18:52:17.797Z,9.70
2018-12-29T18:54:45.269Z,9.70
2018-12-29T18:57:12.854Z,9.70
2018-12-29T18:59:40.314Z,9.70
2018-12-29T19:02:07.805Z,9.70
2018-12-29T19:04:35.293Z,9.70
2018-12-29T19:07:02.765Z,9.70
2018-12-29T19:09:30.242Z,9.70
2018-12-29T19:11:57.701Z,9.70
2018-12-29T19:14:25.254Z,9.70
2018-12-29T19:16:52.737Z,9.70
2018-12-29T19:19:21.626Z,9.70
2018-12-29T19:21:49.868Z,9.60
2018-12-29T19:24:17.330Z,9.60
2018-12-29T19:26:44.800Z,9.60
2018-12-29T19:29:12.295Z,9.60
2018-12-29T19:31:44.541Z,9.50
2018-12-29T19:34:08.010Z,9.50
2018-12-29T19:36:35.474Z,9.50
2018-12-29T19:39:03.886Z,9.50
2018-12-29T19:41:31.361Z,9.50
2018-12-29T19:43:58.837Z,9.40
2018-12-29T19:46:26.325Z,9.50
2018-12-29T19:48:53.941Z,9.50
2018-12-29T19:51:21.410Z,9.40
2018-12-29T19:53:48.953Z,9.40
2018-12-29T19:56:16.438Z,9.30
2018-12-29T19:58:44.655Z,9.30
2018-12-29T20:01:12.117Z,9.20
2018-12-29T20:03:39.571Z,9.20
2018-12-29T20:06:11.137Z,9.20
2018-12-29T20:08:34.553Z,9.20
2018-12-29T20:11:02.016Z,9.20
2018-12-29T20:13:29.481Z,9.20
2018-12-29T20:15:56.970Z,9.10
2018-12-29T20:18:25.225Z,9.10
2018-12-29T20:20:52.702Z,9.10
2018-12-29T20:23:20.925Z,9.10
2018-12-29T20:25:48.392Z,9.10
2018-12-29T20:28:15.859Z,9.10
2018-12-29T20:30:43.481Z,9.10
2018-12-29T20:33:10.955Z,9.10
2018-12-29T20:35:38.425Z,9.10
2018-12-29T20:38:05.925Z,9.10
2018-12-29T20:40:33.399Z,9.10
2018-12-29T20:43:02.386Z,9.10
2018-12-29T20:45:29.851Z,9.10
2018-12-29T20:47:57.323Z,9.10
2018-12-29T20:52:52.122Z,9.00
2018-12-29T20:55:19.574Z,9.00
2018-12-29T20:57:47.090Z,8.90
2018-12-29T21:00:14.621Z,8.90
2018-12-29T21:02:42.088Z,8.90
2018-12-29T21:05:10.345Z,8.80
2018-12-29T21:07:37.807Z,8.80
2018-12-29T21:10:05.262Z,8.80
2018-12-29T21:12:32.852Z,8.90
2018-12-29T21:15:00.315Z,8.90
2018-12-29T21:17:29.124Z,8.90
2018-12-29T21:19:56.664Z,8.90
2018-12-29T21:22:24.135Z,9.00
2018-12-29T21:24:51.595Z,9.00
2018-12-29T21:27:19.068Z,9.00
2018-12-29T21:29:46.618Z,9.00
2018-12-29T21:32:14.865Z,9.00
2018-12-29T21:34:42.359Z,9.00
2018-12-29T21:37:09.835Z,9.00
2018-12-29T21:39:37.393Z,8.90
2018-12-29T21:42:04.860Z,8.90
2018-12-29T21:44:33.126Z,9.00
2018-12-29T21:47:00.700Z,8.90
2018-12-29T21:49:28.979Z,8.90
2018-12-29T21:51:56.441Z,8.90
2018-12-29T21:54:24.698Z,9.00
2018-12-29T21:56:52.171Z,9.00
2018-12-29T21:59:19.633Z,9.00
2018-12-29T22:01:47.106Z,9.00
2018-12-29T22:04:15.374Z,9.10
2018-12-29T22:06:42.849Z,9.10
2018-12-29T22:09:10.413Z,9.00
2018-12-29T22:11:38.655Z,9.00
2018-12-29T22:14:06.245Z,9.00
2018-12-29T22:16:33.707Z,8.90
2018-12-29T22:19:01.964Z,8.90
2018-12-29T22:21:31.870Z,8.90
2018-12-29T22:23:59.370Z,9.00
2018-12-29T22:26:26.925Z,8.90
2018-12-29T22:28:54.397Z,8.90
2018-12-29T22:31:21.862Z,8.90
2018-12-29T22:33:50.132Z,8.80
2018-12-29T22:36:17.695Z,8.90
2018-12-29T22:38:45.147Z,8.90
2018-12-29T22:41:12.622Z,8.90
2018-12-29T22:43:41.604Z,8.90
2018-12-29T22:46:09.081Z,8.90
2018-12-29T22:48:36.545Z,8.80
2018-12-29T22:51:04.008Z,8.90
2018-12-29T22:53:32.981Z,8.90
2018-12-29T22:56:00.449Z,8.90
2018-12-29T22:58:27.925Z,8.90
2018-12-29T23:00:55.408Z,8.90
2018-12-29T23:03:23.702Z,8.90
2018-12-29T23:05:51.156Z,8.90
2018-12-29T23:08:19.394Z,8.80
2018-12-29T23:10:47.695Z,8.80
2018-12-29T23:13:15.220Z,8.80
2018-12-29T23:15:42.709Z,8.80
2018-12-29T23:18:11.018Z,8.90
2018-12-29T23:20:39.290Z,8.80
2018-12-29T23:23:06.757Z,8.80
2018-12-29T23:25:35.034Z,8.90
2018-12-29T23:28:04.203Z,8.80
2018-12-29T23:30:32.477Z,8.80
2018-12-29T23:32:59.942Z,8.80
2018-12-29T23:35:27.421Z,8.80
2018-12-29T23:37:54.986Z,8.80
2018-12-29T23:40:22.488Z,8.90
2018-12-29T23:42:49.948Z,8.90
2018-12-29T23:45:18.183Z,8.80
2018-12-29T23:47:45.991Z,8.80
2018-12-29T23:50:13.468Z,8.80
2018-12-29T23:52:40.960Z,8.80
2018-12-29T23:55:08.445Z,8.80
2018-12-29T23:57:35.919Z,8.80
